sensor_id;sensor_type;location;lat;lon;timestamp;temperature;humidity
14749;DHT22;7466;53.574;9.976;2023-03-14T00:02:01;11.30;99.90
14749;DHT22;7466;53.574;9.976;2023-03-14T00:04:28;11.30;99.90
14749;DHT22;7466;53.574;9.976;2023-03-14T00:06:55;11.30;99.90
14749;DHT22;7466;53.574;9.976;2023-03-14T00:09:25;11.20;99.90
14749;DHT22;7466;53.574;9.976;2023-03-14T00:11:55;11.20;99.90
14749;DHT22;7466;53.574;9.976;2023-03-14T00:14:27;11.20;99.90
14749;DHT22;7466;53.574;9.976;2023-03-14T00:16:54;11.10;99.90
14749;DHT22;7466;53.574;9.976;2023-03-14T00:19:21;11.10;99.90
14749;DHT22;7466;53.574;9.976;2023-03-14T00:21:48;11.10;99.90
14749;DHT22;7466;53.574;9.976;2023-03-14T00:24:18;11.10;99.90
14749;DHT22;7466;53.574;9.976;2023-03-14T00:26:46;11.10;99.90
14749;DHT22;7466;53.574;9.976;2023-03-14T00:29:14;11.00;99.90
14749;DHT22;7466;53.574;9.976;2023-03-14T00:31:41;11.10;99.90
14749;DHT22;7466;53.574;9.976;2023-03-14T00:34:08;11.10;99.90
14749;DHT22;7466;53.574;9.976;2023-03-14T00:36:35;11.00;99.90
14749;DHT22;7466;53.574;9.976;2023-03-14T00:39:02;11.10;99.90
14749;DHT22;7466;53.574;9.976;2023-03-14T00:41:29;11.10;99.90
14749;DHT22;7466;53.574;9.976;2023-03-14T00:43:57;11.10;99.90
14749;DHT22;7466;53.574;9.976;2023-03-14T00:46:24;11.20;99.90
14749;DHT22;7466;53.574;9.976;2023-03-14T00:48:51;11.30;99.90
14749;DHT22;7466;53.574;9.976;2023-03-14T00:51:36;11.30;99.90
14749;DHT22;7466;53.574;9.976;2023-03-14T00:54:03;11.30;99.90
14749;DHT22;7466;53.574;9.976;2023-03-14T00:56:30;11.30;99.90
14749;DHT22;7466;53.574;9.976;2023-03-14T00:58:59;11.30;99.90
14749;DHT22;7466;53.574;9.976;2023-03-14T01:01:27;11.30;99.90
14749;DHT22;7466;53.574;9.976;2023-03-14T01:03:55;11.40;99.90
14749;DHT22;7466;53.574;9.976;2023-03-14T01:06:40;11.40;99.90
14749;DHT22;7466;53.574;9.976;2023-03-14T01:09:07;11.40;99.90
14749;DHT22;7466;53.574;9.976;2023-03-14T01:11:34;11.40;99.90
14749;DHT22;7466;53.574;9.976;2023-03-14T01:14:04;11.40;99.90
14749;DHT22;7466;53.574;9.976;2023-03-14T01:16:32;11.40;99.90
14749;DHT22;7466;53.574;9.976;2023-03-14T01:19:00;11.40;99.90
14749;DHT22;7466;53.574;9.976;2023-03-14T01:21:30;11.40;99.90
14749;DHT22;7466;53.574;9.976;2023-03-14T01:24:12;11.40;99.90
14749;DHT22;7466;53.574;9.976;2023-03-14T01:26:38;11.40;99.90
14749;DHT22;7466;53.574;9.976;2023-03-14T01:29:06;11.40;99.90
14749;DHT22;7466;53.574;9.976;2023-03-14T01:31:33;11.40;99.90
14749;DHT22;7466;53.574;9.976;2023-03-14T01:34:00;11.40;99.90
14749;DHT22;7466;53.574;9.976;2023-03-14T01:36:28;11.40;99.90
14749;DHT22;7466;53.574;9.976;2023-03-14T01:38:56;11.50;99.90
14749;DHT22;7466;53.574;9.976;2023-03-14T01:41:25;11.50;99.90
14749;DHT22;7466;53.574;9.976;2023-03-14T01:43:52;11.40;99.90
14749;DHT22;7466;53.574;9.976;2023-03-14T01:46:28;11.40;99.90
14749;DHT22;7466;53.574;9.976;2023-03-14T01:49:02;11.40;99.90
14749;DHT22;7466;53.574;9.976;2023-03-14T01:51:34;11.40;99.90
14749;DHT22;7466;53.574;9.976;2023-03-14T01:54:09;11.40;99.90
14749;DHT22;7466;53.574;9.976;2023-03-14T01:56:39;11.30;99.90
14749;DHT22;7466;53.574;9.976;2023-03-14T01:59:08;11.20;99.90
14749;DHT22;7466;53.574;9.976;2023-03-14T02:01:38;11.20;99.90
14749;DHT22;7466;53.574;9.976;2023-03-14T02:04:07;11.20;99.90
14749;DHT22;7466;53.574;9.976;2023-03-14T02:06:42;11.10;99.90
14749;DHT22;7466;53.574;9.976;2023-03-14T02:09:14;11.10;99.90
14749;DHT22;7466;53.574;9.976;2023-03-14T02:11:41;11.10;99.90
14749;DHT22;7466;53.574;9.976;2023-03-14T02:14:17;11.00;99.90
14749;DHT22;7466;53.574;9.976;2023-03-14T02:16:47;11.00;99.90
14749;DHT22;7466;53.574;9.976;2023-03-14T02:19:17;10.90;99.90
14749;DHT22;7466;53.574;9.976;2023-03-14T02:21:53;10.80;99.90
14749;DHT22;7466;53.574;9.976;2023-03-14T02:24:32;10.80;99.90
14749;DHT22;7466;53.574;9.976;2023-03-14T02:27:13;10.80;99.90
14749;DHT22;7466;53.574;9.976;2023-03-14T02:29:48;10.80;99.90
14749;DHT22;7466;53.574;9.976;2023-03-14T02:32:16;10.80;99.90
14749;DHT22;7466;53.574;9.976;2023-03-14T02:34:46;10.80;99.90
14749;DHT22;7466;53.574;9.976;2023-03-14T02:37:16;10.70;99.90
14749;DHT22;7466;53.574;9.976;2023-03-14T02:39:45;10.70;99.90
14749;DHT22;7466;53.574;9.976;2023-03-14T02:42:16;10.70;99.90
14749;DHT22;7466;53.574;9.976;2023-03-14T02:44:54;10.60;99.90
14749;DHT22;7466;53.574;9.976;2023-03-14T02:47:31;10.60;99.90
14749;DHT22;7466;53.574;9.976;2023-03-14T02:50:05;10.70;99.90
14749;DHT22;7466;53.574;9.976;2023-03-14T02:52:32;10.70;99.90
14749;DHT22;7466;53.574;9.976;2023-03-14T02:54:59;10.80;99.90
14749;DHT22;7466;53.574;9.976;2023-03-14T02:57:27;10.80;99.90
14749;DHT22;7466;53.574;9.976;2023-03-14T02:59:56;10.90;99.90
14749;DHT22;7466;53.574;9.976;2023-03-14T03:02:26;10.90;99.90
14749;DHT22;7466;53.574;9.976;2023-03-14T03:04:54;11.00;99.90
14749;DHT22;7466;53.574;9.976;2023-03-14T03:07:22;11.00;99.90
14749;DHT22;7466;53.574;9.976;2023-03-14T03:10:01;11.00;99.90
14749;DHT22;7466;53.574;9.976;2023-03-14T03:12:30;11.10;99.90
14749;DHT22;7466;53.574;9.976;2023-03-14T03:14:56;11.10;99.90
14749;DHT22;7466;53.574;9.976;2023-03-14T03:17:23;11.10;99.90
14749;DHT22;7466;53.574;9.976;2023-03-14T03:19:50;11.20;99.90
14749;DHT22;7466;53.574;9.976;2023-03-14T03:22:17;11.20;99.90
14749;DHT22;7466;53.574;9.976;2023-03-14T03:24:43;11.20;99.90
14749;DHT22;7466;53.574;9.976;2023-03-14T03:27:10;11.20;99.90
14749;DHT22;7466;53.574;9.976;2023-03-14T03:29:39;11.20;99.90
14749;DHT22;7466;53.574;9.976;2023-03-14T03:32:06;11.20;99.90
14749;DHT22;7466;53.574;9.976;2023-03-14T03:34:32;11.30;99.90
14749;DHT22;7466;53.574;9.976;2023-03-14T03:37:00;11.30;99.90
14749;DHT22;7466;53.574;9.976;2023-03-14T03:39:28;11.40;99.90
14749;DHT22;7466;53.574;9.976;2023-03-14T03:41:55;11.30;99.90
14749;DHT22;7466;53.574;9.976;2023-03-14T03:44:21;11.40;99.90
14749;DHT22;7466;53.574;9.976;2023-03-14T03:46:50;11.40;99.90
14749;DHT22;7466;53.574;9.976;2023-03-14T03:49:17;11.40;99.90
14749;DHT22;7466;53.574;9.976;2023-03-14T03:51:44;11.30;99.90
14749;DHT22;7466;53.574;9.976;2023-03-14T03:54:11;11.30;99.90
14749;DHT22;7466;53.574;9.976;2023-03-14T03:56:38;11.20;99.90
14749;DHT22;7466;53.574;9.976;2023-03-14T03:59:05;11.30;99.90
14749;DHT22;7466;53.574;9.976;2023-03-14T04:01:32;11.20;99.90
14749;DHT22;7466;53.574;9.976;2023-03-14T04:04:04;11.30;99.90
14749;DHT22;7466;53.574;9.976;2023-03-14T04:06:31;11.30;99.90
14749;DHT22;7466;53.574;9.976;2023-03-14T04:08:58;11.20;99.90
14749;DHT22;7466;53.574;9.976;2023-03-14T04:11:26;11.20;99.90
14749;DHT22;7466;53.574;9.976;2023-03-14T04:13:52;11.10;99.90
14749;DHT22;7466;53.574;9.976;2023-03-14T04:16:21;11.10;99.90
14749;DHT22;7466;53.574;9.976;2023-03-14T04:18:50;11.10;99.90
14749;DHT22;7466;53.574;9.976;2023-03-14T04:21:21;11.10;99.90
14749;DHT22;7466;53.574;9.976;2023-03-14T04:23:48;11.10;99.90
14749;DHT22;7466;53.574;9.976;2023-03-14T04:26:15;11.10;99.90
14749;DHT22;7466;53.574;9.976;2023-03-14T04:28:42;11.10;99.90
14749;DHT22;7466;53.574;9.976;2023-03-14T04:31:10;11.10;99.90
14749;DHT22;7466;53.574;9.976;2023-03-14T04:33:37;11.10;99.90
14749;DHT22;7466;53.574;9.976;2023-03-14T04:36:05;11.10;99.90
14749;DHT22;7466;53.574;9.976;2023-03-14T04:38:35;11.10;99.90
14749;DHT22;7466;53.574;9.976;2023-03-14T04:41:02;11.10;99.90
14749;DHT22;7466;53.574;9.976;2023-03-14T04:43:32;11.10;99.90
14749;DHT22;7466;53.574;9.976;2023-03-14T04:46:00;11.10;99.90
14749;DHT22;7466;53.574;9.976;2023-03-14T04:48:27;11.10;99.90
14749;DHT22;7466;53.574;9.976;2023-03-14T04:50:55;11.10;99.90
14749;DHT22;7466;53.574;9.976;2023-03-14T04:53:23;11.10;99.90
14749;DHT22;7466;53.574;9.976;2023-03-14T04:55:53;11.10;99.90
14749;DHT22;7466;53.574;9.976;2023-03-14T04:58:21;11.20;99.90
14749;DHT22;7466;53.574;9.976;2023-03-14T05:00:50;11.20;99.90
14749;DHT22;7466;53.574;9.976;2023-03-14T05:03:18;11.20;99.90
14749;DHT22;7466;53.574;9.976;2023-03-14T05:05:45;11.20;99.90
14749;DHT22;7466;53.574;9.976;2023-03-14T05:08:12;11.10;99.90
14749;DHT22;7466;53.574;9.976;2023-03-14T05:10:39;11.10;99.90
14749;DHT22;7466;53.574;9.976;2023-03-14T05:13:07;11.10;99.90
14749;DHT22;7466;53.574;9.976;2023-03-14T05:15:34;11.10;99.90
14749;DHT22;7466;53.574;9.976;2023-03-14T05:18:01;10.90;99.90
14749;DHT22;7466;53.574;9.976;2023-03-14T05:20:29;10.70;99.90
14749;DHT22;7466;53.574;9.976;2023-03-14T05:22:57;10.40;99.90
14749;DHT22;7466;53.574;9.976;2023-03-14T05:25:24;10.10;99.90
14749;DHT22;7466;53.574;9.976;2023-03-14T05:27:53;9.90;99.90
14749;DHT22;7466;53.574;9.976;2023-03-14T05:30:22;9.70;99.90
14749;DHT22;7466;53.574;9.976;2023-03-14T05:32:48;9.70;99.90
14749;DHT22;7466;53.574;9.976;2023-03-14T05:35:15;9.60;99.90
14749;DHT22;7466;53.574;9.976;2023-03-14T05:37:42;9.60;99.90
14749;DHT22;7466;53.574;9.976;2023-03-14T05:40:10;9.50;99.90
14749;DHT22;7466;53.574;9.976;2023-03-14T05:42:37;9.50;99.90
14749;DHT22;7466;53.574;9.976;2023-03-14T05:45:05;9.50;99.90
14749;DHT22;7466;53.574;9.976;2023-03-14T05:47:34;9.50;99.90
14749;DHT22;7466;53.574;9.976;2023-03-14T05:50:01;9.50;99.90
14749;DHT22;7466;53.574;9.976;2023-03-14T05:52:27;9.50;99.90
14749;DHT22;7466;53.574;9.976;2023-03-14T05:54:54;9.50;99.90
14749;DHT22;7466;53.574;9.976;2023-03-14T05:57:21;9.50;99.90
14749;DHT22;7466;53.574;9.976;2023-03-14T05:59:48;9.50;99.90
14749;DHT22;7466;53.574;9.976;2023-03-14T06:02:17;9.60;99.90
14749;DHT22;7466;53.574;9.976;2023-03-14T06:04:45;9.60;99.90
14749;DHT22;7466;53.574;9.976;2023-03-14T06:07:12;9.70;99.90
14749;DHT22;7466;53.574;9.976;2023-03-14T06:09:39;9.70;99.90
14749;DHT22;7466;53.574;9.976;2023-03-14T06:12:06;9.70;99.90
14749;DHT22;7466;53.574;9.976;2023-03-14T06:14:33;9.70;99.90
14749;DHT22;7466;53.574;9.976;2023-03-14T06:17:00;9.80;99.90
14749;DHT22;7466;53.574;9.976;2023-03-14T06:19:27;9.80;99.90
14749;DHT22;7466;53.574;9.976;2023-03-14T06:21:56;9.90;99.90
14749;DHT22;7466;53.574;9.976;2023-03-14T06:24:23;9.90;99.90
14749;DHT22;7466;53.574;9.976;2023-03-14T06:26:49;9.90;99.90
14749;DHT22;7466;53.574;9.976;2023-03-14T06:29:16;9.90;99.90
14749;DHT22;7466;53.574;9.976;2023-03-14T06:31:43;9.90;99.90
14749;DHT22;7466;53.574;9.976;2023-03-14T06:34:14;9.90;99.90
14749;DHT22;7466;53.574;9.976;2023-03-14T06:36:42;9.90;99.90
14749;DHT22;7466;53.574;9.976;2023-03-14T06:39:10;9.90;99.90
14749;DHT22;7466;53.574;9.976;2023-03-14T06:41:37;9.90;99.90
14749;DHT22;7466;53.574;9.976;2023-03-14T06:44:04;9.90;99.90
14749;DHT22;7466;53.574;9.976;2023-03-14T06:46:31;9.90;99.90
14749;DHT22;7466;53.574;9.976;2023-03-14T06:48:58;9.90;99.90
14749;DHT22;7466;53.574;9.976;2023-03-14T06:51:25;10.00;99.90
14749;DHT22;7466;53.574;9.976;2023-03-14T06:53:52;10.00;99.90
14749;DHT22;7466;53.574;9.976;2023-03-14T06:56:20;10.00;99.90
14749;DHT22;7466;53.574;9.976;2023-03-14T06:58:47;10.00;99.90
14749;DHT22;7466;53.574;9.976;2023-03-14T07:01:21;10.00;99.90
14749;DHT22;7466;53.574;9.976;2023-03-14T07:03:49;10.00;99.90
14749;DHT22;7466;53.574;9.976;2023-03-14T07:06:16;10.00;99.90
14749;DHT22;7466;53.574;9.976;2023-03-14T07:08:43;10.00;99.90
14749;DHT22;7466;53.574;9.976;2023-03-14T07:11:10;10.00;99.90
14749;DHT22;7466;53.574;9.976;2023-03-14T07:13:39;10.00;99.90
14749;DHT22;7466;53.574;9.976;2023-03-14T07:16:07;10.10;99.90
14749;DHT22;7466;53.574;9.976;2023-03-14T07:18:35;10.10;99.90
14749;DHT22;7466;53.574;9.976;2023-03-14T07:21:03;10.10;99.90
14749;DHT22;7466;53.574;9.976;2023-03-14T07:23:29;10.20;99.90
14749;DHT22;7466;53.574;9.976;2023-03-14T07:25:56;10.20;99.90
14749;DHT22;7466;53.574;9.976;2023-03-14T07:28:23;10.20;99.90
14749;DHT22;7466;53.574;9.976;2023-03-14T07:30:52;10.20;99.90
14749;DHT22;7466;53.574;9.976;2023-03-14T07:33:19;10.20;99.90
14749;DHT22;7466;53.574;9.976;2023-03-14T07:35:47;10.20;99.90
14749;DHT22;7466;53.574;9.976;2023-03-14T07:38:15;10.30;99.90
14749;DHT22;7466;53.574;9.976;2023-03-14T07:40:41;10.30;99.90
14749;DHT22;7466;53.574;9.976;2023-03-14T07:43:09;10.30;99.90
14749;DHT22;7466;53.574;9.976;2023-03-14T07:45:36;10.30;99.90
14749;DHT22;7466;53.574;9.976;2023-03-14T07:48:07;10.30;99.90
14749;DHT22;7466;53.574;9.976;2023-03-14T07:50:35;10.20;99.90
14749;DHT22;7466;53.574;9.976;2023-03-14T07:53:02;10.10;99.90
14749;DHT22;7466;53.574;9.976;2023-03-14T07:55:29;10.10;99.90
14749;DHT22;7466;53.574;9.976;2023-03-14T07:57:55;10.20;99.90
14749;DHT22;7466;53.574;9.976;2023-03-14T08:00:22;10.20;99.90
14749;DHT22;7466;53.574;9.976;2023-03-14T08:02:49;10.20;99.90
14749;DHT22;7466;53.574;9.976;2023-03-14T08:05:18;10.30;99.90
14749;DHT22;7466;53.574;9.976;2023-03-14T08:07:44;10.30;99.90
14749;DHT22;7466;53.574;9.976;2023-03-14T08:10:12;10.30;99.90
14749;DHT22;7466;53.574;9.976;2023-03-14T08:12:46;10.40;99.90
14749;DHT22;7466;53.574;9.976;2023-03-14T08:15:13;10.50;99.90
14749;DHT22;7466;53.574;9.976;2023-03-14T08:17:40;10.60;99.90
14749;DHT22;7466;53.574;9.976;2023-03-14T08:20:09;10.70;99.90
14749;DHT22;7466;53.574;9.976;2023-03-14T08:22:42;10.70;99.90
14749;DHT22;7466;53.574;9.976;2023-03-14T08:25:09;10.70;99.90
14749;DHT22;7466;53.574;9.976;2023-03-14T08:27:37;10.70;99.90
14749;DHT22;7466;53.574;9.976;2023-03-14T08:30:10;10.70;99.90
14749;DHT22;7466;53.574;9.976;2023-03-14T08:32:37;10.70;99.90
14749;DHT22;7466;53.574;9.976;2023-03-14T08:35:07;10.70;99.90
14749;DHT22;7466;53.574;9.976;2023-03-14T08:37:42;10.70;99.90
14749;DHT22;7466;53.574;9.976;2023-03-14T08:40:10;10.80;99.90
14749;DHT22;7466;53.574;9.976;2023-03-14T08:42:38;10.80;99.90
14749;DHT22;7466;53.574;9.976;2023-03-14T08:45:07;10.80;99.90
14749;DHT22;7466;53.574;9.976;2023-03-14T08:47:35;10.70;99.90
14749;DHT22;7466;53.574;9.976;2023-03-14T08:50:05;10.80;99.90
14749;DHT22;7466;53.574;9.976;2023-03-14T08:52:33;10.80;99.90
14749;DHT22;7466;53.574;9.976;2023-03-14T08:55:01;10.80;99.90
14749;DHT22;7466;53.574;9.976;2023-03-14T08:57:28;10.70;99.90
14749;DHT22;7466;53.574;9.976;2023-03-14T08:59:55;10.70;99.90
14749;DHT22;7466;53.574;9.976;2023-03-14T09:02:23;10.60;99.90
14749;DHT22;7466;53.574;9.976;2023-03-14T09:04:54;10.60;99.90
14749;DHT22;7466;53.574;9.976;2023-03-14T09:07:32;10.60;99.90
14749;DHT22;7466;53.574;9.976;2023-03-14T09:10:01;10.50;99.90
14749;DHT22;7466;53.574;9.976;2023-03-14T09:12:28;10.50;99.90
14749;DHT22;7466;53.574;9.976;2023-03-14T09:14:56;10.50;99.90
14749;DHT22;7466;53.574;9.976;2023-03-14T09:17:26;10.40;99.90
14749;DHT22;7466;53.574;9.976;2023-03-14T09:19:54;10.50;99.90
14749;DHT22;7466;53.574;9.976;2023-03-14T09:22:23;10.50;99.90
14749;DHT22;7466;53.574;9.976;2023-03-14T09:24:50;10.50;99.90
14749;DHT22;7466;53.574;9.976;2023-03-14T09:27:19;10.50;99.90
14749;DHT22;7466;53.574;9.976;2023-03-14T09:29:45;10.40;99.90
14749;DHT22;7466;53.574;9.976;2023-03-14T09:32:12;10.50;99.90
14749;DHT22;7466;53.574;9.976;2023-03-14T09:34:39;10.40;99.90
14749;DHT22;7466;53.574;9.976;2023-03-14T09:37:06;10.50;99.90
14749;DHT22;7466;53.574;9.976;2023-03-14T09:39:33;10.50;99.90
14749;DHT22;7466;53.574;9.976;2023-03-14T09:42:03;10.60;99.90
14749;DHT22;7466;53.574;9.976;2023-03-14T09:44:35;10.60;99.90
14749;DHT22;7466;53.574;9.976;2023-03-14T09:47:06;10.60;99.90
14749;DHT22;7466;53.574;9.976;2023-03-14T09:49:34;10.50;99.90
14749;DHT22;7466;53.574;9.976;2023-03-14T09:52:06;10.40;99.90
14749;DHT22;7466;53.574;9.976;2023-03-14T09:54:38;10.30;99.90
14749;DHT22;7466;53.574;9.976;2023-03-14T09:57:12;10.10;99.90
14749;DHT22;7466;53.574;9.976;2023-03-14T09:59:42;9.60;99.90
14749;DHT22;7466;53.574;9.976;2023-03-14T10:02:16;9.00;99.90
14749;DHT22;7466;53.574;9.976;2023-03-14T10:04:45;8.50;99.90
14749;DHT22;7466;53.574;9.976;2023-03-14T10:07:14;8.30;99.90
14749;DHT22;7466;53.574;9.976;2023-03-14T10:09:43;8.10;99.90
14749;DHT22;7466;53.574;9.976;2023-03-14T10:12:10;7.90;99.90
14749;DHT22;7466;53.574;9.976;2023-03-14T10:14:46;7.50;99.90
14749;DHT22;7466;53.574;9.976;2023-03-14T10:17:14;7.40;99.90
14749;DHT22;7466;53.574;9.976;2023-03-14T10:19:52;7.50;99.90
14749;DHT22;7466;53.574;9.976;2023-03-14T10:22:19;7.50;99.90
14749;DHT22;7466;53.574;9.976;2023-03-14T10:24:51;7.40;99.90
14749;DHT22;7466;53.574;9.976;2023-03-14T10:27:21;7.20;99.90
14749;DHT22;7466;53.574;9.976;2023-03-14T10:29:54;6.70;99.90
14749;DHT22;7466;53.574;9.976;2023-03-14T10:32:28;6.70;99.90
14749;DHT22;7466;53.574;9.976;2023-03-14T10:35:06;6.60;99.90
14749;DHT22;7466;53.574;9.976;2023-03-14T10:37:48;6.40;99.90
14749;DHT22;7466;53.574;9.976;2023-03-14T10:40:26;6.40;99.90
14749;DHT22;7466;53.574;9.976;2023-03-14T10:42:54;6.10;99.90
14749;DHT22;7466;53.574;9.976;2023-03-14T10:45:35;6.00;99.90
14749;DHT22;7466;53.574;9.976;2023-03-14T10:48:18;5.80;99.90
14749;DHT22;7466;53.574;9.976;2023-03-14T10:50:53;5.50;99.90
14749;DHT22;7466;53.574;9.976;2023-03-14T10:53:22;5.30;99.90
14749;DHT22;7466;53.574;9.976;2023-03-14T10:55:48;5.00;99.90
14749;DHT22;7466;53.574;9.976;2023-03-14T10:58:26;5.00;99.90
14749;DHT22;7466;53.574;9.976;2023-03-14T11:01:02;5.10;99.90
14749;DHT22;7466;53.574;9.976;2023-03-14T11:03:45;5.10;99.90
14749;DHT22;7466;53.574;9.976;2023-03-14T11:06:19;5.00;99.90
14749;DHT22;7466;53.574;9.976;2023-03-14T11:08:54;5.00;99.90
14749;DHT22;7466;53.574;9.976;2023-03-14T11:11:26;4.90;99.90
14749;DHT22;7466;53.574;9.976;2023-03-14T11:14:07;4.70;99.90
14749;DHT22;7466;53.574;9.976;2023-03-14T11:16:47;4.70;99.90
14749;DHT22;7466;53.574;9.976;2023-03-14T11:19:40;4.80;99.90
14749;DHT22;7466;53.574;9.976;2023-03-14T11:22:17;4.90;99.90
14749;DHT22;7466;53.574;9.976;2023-03-14T11:27:41;4.70;99.90
14749;DHT22;7466;53.574;9.976;2023-03-14T11:30:23;4.70;99.90
14749;DHT22;7466;53.574;9.976;2023-03-14T11:32:57;4.70;99.90
14749;DHT22;7466;53.574;9.976;2023-03-14T11:35:37;4.60;99.90
14749;DHT22;7466;53.574;9.976;2023-03-14T11:38:13;4.50;99.90
14749;DHT22;7466;53.574;9.976;2023-03-14T11:40:41;4.70;99.90
14749;DHT22;7466;53.574;9.976;2023-03-14T11:43:13;4.70;99.90
14749;DHT22;7466;53.574;9.976;2023-03-14T11:45:43;4.60;99.90
14749;DHT22;7466;53.574;9.976;2023-03-14T11:48:18;4.80;99.90
14749;DHT22;7466;53.574;9.976;2023-03-14T11:50:48;4.90;99.90
14749;DHT22;7466;53.574;9.976;2023-03-14T11:53:20;4.90;99.90
14749;DHT22;7466;53.574;9.976;2023-03-14T11:55:49;5.30;99.90
14749;DHT22;7466;53.574;9.976;2023-03-14T11:58:20;5.40;99.90
14749;DHT22;7466;53.574;9.976;2023-03-14T12:00:49;5.20;99.90
14749;DHT22;7466;53.574;9.976;2023-03-14T12:03:24;5.10;99.90
14749;DHT22;7466;53.574;9.976;2023-03-14T12:06:12;5.10;99.90
14749;DHT22;7466;53.574;9.976;2023-03-14T12:08:45;5.10;99.90
14749;DHT22;7466;53.574;9.976;2023-03-14T12:11:35;5.20;99.90
14749;DHT22;7466;53.574;9.976;2023-03-14T12:14:03;5.30;99.90
14749;DHT22;7466;53.574;9.976;2023-03-14T12:16:35;5.30;91.70
14749;DHT22;7466;53.574;9.976;2023-03-14T12:19:37;5.20;92.50
14749;DHT22;7466;53.574;9.976;2023-03-14T12:22:16;5.30;98.00
14749;DHT22;7466;53.574;9.976;2023-03-14T12:24:48;5.40;99.90
14749;DHT22;7466;53.574;9.976;2023-03-14T12:27:41;5.60;99.90
14749;DHT22;7466;53.574;9.976;2023-03-14T12:30:17;5.40;81.90
14749;DHT22;7466;53.574;9.976;2023-03-14T12:36:48;5.70;99.00
14749;DHT22;7466;53.574;9.976;2023-03-14T12:39:31;5.50;71.30
14749;DHT22;7466;53.574;9.976;2023-03-14T12:42:04;5.60;90.00
14749;DHT22;7466;53.574;9.976;2023-03-14T12:44:48;5.70;84.70
14749;DHT22;7466;53.574;9.976;2023-03-14T12:47:55;5.60;71.10
14749;DHT22;7466;53.574;9.976;2023-03-14T12:50:31;5.70;76.80
14749;DHT22;7466;53.574;9.976;2023-03-14T12:53:33;5.70;90.60
14749;DHT22;7466;53.574;9.976;2023-03-14T12:56:11;5.70;75.60
14749;DHT22;7466;53.574;9.976;2023-03-14T12:58:44;5.80;79.90
14749;DHT22;7466;53.574;9.976;2023-03-14T13:01:16;5.80;91.00
14749;DHT22;7466;53.574;9.976;2023-03-14T13:03:45;5.90;68.80
14749;DHT22;7466;53.574;9.976;2023-03-14T13:06:13;5.80;84.90
14749;DHT22;7466;53.574;9.976;2023-03-14T13:12:19;6.00;99.90
14749;DHT22;7466;53.574;9.976;2023-03-14T13:14:50;6.30;99.90
14749;DHT22;7466;53.574;9.976;2023-03-14T13:17:23;6.30;99.90
14749;DHT22;7466;53.574;9.976;2023-03-14T13:19:53;6.30;94.50
14749;DHT22;7466;53.574;9.976;2023-03-14T13:22:24;6.50;92.00
14749;DHT22;7466;53.574;9.976;2023-03-14T13:24:59;7.00;63.50
14749;DHT22;7466;53.574;9.976;2023-03-14T13:27:48;7.00;1.00
14749;DHT22;7466;53.574;9.976;2023-03-14T13:30:18;6.70;99.90
14749;DHT22;7466;53.574;9.976;2023-03-14T13:32:47;6.70;99.90
14749;DHT22;7466;53.574;9.976;2023-03-14T13:35:20;6.70;99.90
14749;DHT22;7466;53.574;9.976;2023-03-14T13:37:47;6.90;99.90
14749;DHT22;7466;53.574;9.976;2023-03-14T13:40:27;6.80;99.90
14749;DHT22;7466;53.574;9.976;2023-03-14T13:43:06;6.80;99.90
14749;DHT22;7466;53.574;9.976;2023-03-14T13:45:49;6.70;99.90
14749;DHT22;7466;53.574;9.976;2023-03-14T13:48:17;6.60;99.90
14749;DHT22;7466;53.574;9.976;2023-03-14T13:50:49;6.80;99.90
14749;DHT22;7466;53.574;9.976;2023-03-14T13:53:16;6.80;99.90
14749;DHT22;7466;53.574;9.976;2023-03-14T13:55:44;6.90;99.90
14749;DHT22;7466;53.574;9.976;2023-03-14T13:58:20;6.90;99.90
14749;DHT22;7466;53.574;9.976;2023-03-14T14:01:01;6.80;99.90
14749;DHT22;7466;53.574;9.976;2023-03-14T14:03:31;6.80;99.90
14749;DHT22;7466;53.574;9.976;2023-03-14T14:05:59;6.60;99.90
14749;DHT22;7466;53.574;9.976;2023-03-14T14:08:26;6.30;99.90
14749;DHT22;7466;53.574;9.976;2023-03-14T14:10:57;6.30;99.90
14749;DHT22;7466;53.574;9.976;2023-03-14T14:13:27;6.00;99.90
14749;DHT22;7466;53.574;9.976;2023-03-14T14:15:59;6.10;99.90
14749;DHT22;7466;53.574;9.976;2023-03-14T14:18:28;6.30;99.90
14749;DHT22;7466;53.574;9.976;2023-03-14T14:20:55;6.50;99.90
14749;DHT22;7466;53.574;9.976;2023-03-14T14:23:25;6.40;99.90
14749;DHT22;7466;53.574;9.976;2023-03-14T14:25:55;6.40;99.90
14749;DHT22;7466;53.574;9.976;2023-03-14T14:28:26;6.30;99.90
14749;DHT22;7466;53.574;9.976;2023-03-14T14:31:05;6.30;99.90
14749;DHT22;7466;53.574;9.976;2023-03-14T14:33:40;6.30;99.90
14749;DHT22;7466;53.574;9.976;2023-03-14T14:36:29;6.20;99.90
14749;DHT22;7466;53.574;9.976;2023-03-14T14:39:00;6.30;99.90
14749;DHT22;7466;53.574;9.976;2023-03-14T14:41:32;6.30;99.90
14749;DHT22;7466;53.574;9.976;2023-03-14T14:44:03;6.40;99.90
14749;DHT22;7466;53.574;9.976;2023-03-14T14:46:32;6.30;99.90
14749;DHT22;7466;53.574;9.976;2023-03-14T14:49:04;6.50;99.90
14749;DHT22;7466;53.574;9.976;2023-03-14T14:51:34;6.30;99.90
14749;DHT22;7466;53.574;9.976;2023-03-14T14:54:09;6.20;99.90
14749;DHT22;7466;53.574;9.976;2023-03-14T14:56:37;6.40;99.90
14749;DHT22;7466;53.574;9.976;2023-03-14T14:59:17;6.30;99.90
14749;DHT22;7466;53.574;9.976;2023-03-14T15:01:46;6.50;99.90
14749;DHT22;7466;53.574;9.976;2023-03-14T15:04:16;6.40;99.90
14749;DHT22;7466;53.574;9.976;2023-03-14T15:06:45;6.40;99.90
14749;DHT22;7466;53.574;9.976;2023-03-14T15:09:12;6.30;99.90
14749;DHT22;7466;53.574;9.976;2023-03-14T15:11:39;6.30;99.90
14749;DHT22;7466;53.574;9.976;2023-03-14T15:14:07;6.40;99.90
14749;DHT22;7466;53.574;9.976;2023-03-14T15:16:34;6.60;99.90
14749;DHT22;7466;53.574;9.976;2023-03-14T15:19:03;6.60;99.90
14749;DHT22;7466;53.574;9.976;2023-03-14T15:21:33;6.70;99.90
14749;DHT22;7466;53.574;9.976;2023-03-14T15:24:00;6.70;99.90
14749;DHT22;7466;53.574;9.976;2023-03-14T15:26:27;6.50;99.90
14749;DHT22;7466;53.574;9.976;2023-03-14T15:28:54;6.60;99.90
14749;DHT22;7466;53.574;9.976;2023-03-14T15:31:22;6.40;99.90
14749;DHT22;7466;53.574;9.976;2023-03-14T15:33:49;6.10;99.90
14749;DHT22;7466;53.574;9.976;2023-03-14T15:36:21;6.30;99.90
14749;DHT22;7466;53.574;9.976;2023-03-14T15:38:58;6.30;99.90
14749;DHT22;7466;53.574;9.976;2023-03-14T15:41:26;6.40;99.90
14749;DHT22;7466;53.574;9.976;2023-03-14T15:43:53;6.10;99.90
14749;DHT22;7466;53.574;9.976;2023-03-14T15:46:22;6.20;99.90
14749;DHT22;7466;53.574;9.976;2023-03-14T15:48:50;6.10;99.90
14749;DHT22;7466;53.574;9.976;2023-03-14T15:51:18;6.10;99.90
14749;DHT22;7466;53.574;9.976;2023-03-14T15:53:45;5.90;99.90
14749;DHT22;7466;53.574;9.976;2023-03-14T15:56:14;5.80;99.90
14749;DHT22;7466;53.574;9.976;2023-03-14T15:58:43;5.80;99.90
14749;DHT22;7466;53.574;9.976;2023-03-14T16:01:12;5.90;99.90
14749;DHT22;7466;53.574;9.976;2023-03-14T16:03:42;6.00;99.90
14749;DHT22;7466;53.574;9.976;2023-03-14T16:06:10;5.90;99.90
14749;DHT22;7466;53.574;9.976;2023-03-14T16:08:37;5.90;99.90
14749;DHT22;7466;53.574;9.976;2023-03-14T16:11:04;6.00;99.90
14749;DHT22;7466;53.574;9.976;2023-03-14T16:13:31;6.00;99.90
14749;DHT22;7466;53.574;9.976;2023-03-14T16:15:59;6.00;99.90
14749;DHT22;7466;53.574;9.976;2023-03-14T16:18:43;6.00;99.90
14749;DHT22;7466;53.574;9.976;2023-03-14T16:21:13;5.80;99.90
14749;DHT22;7466;53.574;9.976;2023-03-14T16:23:40;5.90;99.90